createdAt,value
2019-04-30T00:00:55.501Z,102518.71
2019-04-30T00:03:32.395Z,102515.52
2019-04-30T00:06:01.919Z,102513.28
2019-04-30T00:08:35.418Z,102514.53
2019-04-30T00:11:02.567Z,102513.41
2019-04-30T00:13:32.065Z,102509.02
2019-04-30T00:16:01.746Z,102509.98
2019-04-30T00:18:37.956Z,102512.52
2019-04-30T00:21:02.463Z,102514.92
2019-04-30T00:23:31.872Z,102513.52
2019-04-30T00:26:06.411Z,102519.44
2019-04-30T00:28:32.520Z,102507.33
2019-04-30T00:31:05.396Z,102507.95
2019-04-30T00:33:35.383Z,102513.44
2019-04-30T00:36:05.294Z,102509.06
2019-04-30T00:38:37.847Z,102503.91
2019-04-30T00:41:10.112Z,102497.95
2019-04-30T00:43:46.526Z,102494.41
2019-04-30T00:46:10.877Z,102496.20
2019-04-30T00:48:40.327Z,102486.84
2019-04-30T00:51:17.826Z,102495.17
2019-04-30T00:53:43.854Z,102499.42
2019-04-30T00:56:12.499Z,102502.41
2019-04-30T00:58:42.487Z,102498.59
2019-04-30T01:01:16.906Z,102502.78
2019-04-30T01:03:49.560Z,102496.39
2019-04-30T01:06:24.627Z,102500.72
2019-04-30T01:08:52.431Z,102496.94
2019-04-30T01:11:27.622Z,102494.92
2019-04-30T01:13:58.939Z,102491.23
2019-04-30T01:16:32.863Z,102493.17
2019-04-30T01:19:01.006Z,102488.94
2019-04-30T01:21:30.725Z,102491.67
2019-04-30T01:24:00.286Z,102484.64
2019-04-30T01:26:34.195Z,102495.61
2019-04-30T01:29:22.994Z,102490.98
2019-04-30T01:31:52.430Z,102494.32
2019-04-30T01:34:22.194Z,102491.98
2019-04-30T01:36:52.303Z,102490.79
2019-04-30T01:39:23.773Z,102486.75
2019-04-30T01:41:53.460Z,102490.05
2019-04-30T01:44:22.913Z,102492.16
2019-04-30T01:46:55.683Z,102492.02
2019-04-30T01:49:26.662Z,102490.23
2019-04-30T01:51:57.445Z,102493.69
2019-04-30T01:54:29.168Z,102483.09
2019-04-30T01:57:00.489Z,102486.83
2019-04-30T01:59:31.562Z,102487.39
2019-04-30T02:02:01.010Z,102483.83
2019-04-30T02:04:31.462Z,102480.99
2019-04-30T02:07:01.078Z,102477.75
2019-04-30T02:09:30.802Z,102480.05
2019-04-30T02:12:00.226Z,102479.07
2019-04-30T02:14:29.684Z,102482.58
2019-04-30T02:16:59.466Z,102479.56
2019-04-30T02:19:31.149Z,102484.92
2019-04-30T02:22:00.221Z,102485.30
2019-04-30T02:24:29.636Z,102490.02
2019-04-30T02:26:59.484Z,102487.48
2019-04-30T02:29:29.693Z,102482.25
2019-04-30T02:32:00.525Z,102479.90
2019-04-30T02:34:42.208Z,102483.02
2019-04-30T02:37:10.427Z,102481.75
2019-04-30T02:39:40.376Z,102483.53
2019-04-30T02:42:13.341Z,102480.34
2019-04-30T02:44:44.811Z,102482.93
2019-04-30T02:47:15.184Z,102482.67
2019-04-30T02:49:45.431Z,102481.13
2019-04-30T02:52:19.490Z,102477.33
2019-04-30T02:54:51.252Z,102482.97
2019-04-30T02:57:23.516Z,102486.09
2019-04-30T03:00:05.136Z,102485.17
2019-04-30T03:02:34.732Z,102484.05
2019-04-30T03:05:06.886Z,102481.78
2019-04-30T03:07:36.313Z,102481.63
2019-04-30T03:10:10.081Z,102478.45
2019-04-30T03:12:40.460Z,102477.09
2019-04-30T03:15:10.526Z,102474.70
2019-04-30T03:17:41.596Z,102478.56
2019-04-30T03:20:27.826Z,102467.53
2019-04-30T03:22:43.904Z,102478.47
2019-04-30T03:25:13.397Z,102473.82
2019-04-30T03:27:42.907Z,102468.72
2019-04-30T03:30:12.614Z,102463.78
2019-04-30T03:32:42.934Z,102461.89
2019-04-30T03:35:13.461Z,102466.03
2019-04-30T03:37:43.191Z,102453.33
2019-04-30T03:40:13.403Z,102450.41
2019-04-30T03:42:42.846Z,102454.47
2019-04-30T03:45:12.527Z,102445.86
2019-04-30T03:47:43.267Z,102457.72
2019-04-30T03:50:12.927Z,102451.58
2019-04-30T03:52:42.363Z,102449.83
2019-04-30T03:55:13.908Z,102449.74
2019-04-30T03:57:43.134Z,102456.56
2019-04-30T04:00:14.645Z,102452.42
2019-04-30T04:02:45.748Z,102453.36
2019-04-30T04:05:20.232Z,102448.64
2019-04-30T04:07:54.424Z,102457.25
2019-04-30T04:10:41.402Z,102452.85
2019-04-30T04:13:10.829Z,102452.02
2019-04-30T04:15:40.281Z,102452.30
2019-04-30T04:18:10.635Z,102456.53
2019-04-30T04:20:42.839Z,102454.23
2019-04-30T04:23:11.530Z,102453.27
2019-04-30T04:25:40.958Z,102453.50
2019-04-30T04:28:10.375Z,102450.21
2019-04-30T04:30:43.033Z,102442.55
2019-04-30T04:33:11.683Z,102451.95
2019-04-30T04:35:41.279Z,102451.88
2019-04-30T04:38:12.753Z,102446.95
2019-04-30T04:40:41.958Z,102452.45
2019-04-30T04:43:11.386Z,102448.53
2019-04-30T04:45:43.737Z,102452.39
2019-04-30T04:48:12.047Z,102454.98
2019-04-30T04:50:41.466Z,102456.16
2019-04-30T04:53:11.784Z,102456.13
2019-04-30T04:55:41.362Z,102453.55
2019-04-30T04:58:12.955Z,102451.24
2019-04-30T05:00:41.964Z,102445.70
2019-04-30T05:03:15.578Z,102449.79
2019-04-30T05:05:45.023Z,102449.98
2019-04-30T05:08:14.456Z,102445.17
2019-04-30T05:10:45.606Z,102443.25
2019-04-30T05:13:15.081Z,102449.58
2019-04-30T05:15:44.877Z,102449.44
2019-04-30T05:18:14.305Z,102458.16
2019-04-30T05:20:43.740Z,102452.70
2019-04-30T05:23:13.184Z,102457.05
2019-04-30T05:25:42.606Z,102455.52
2019-04-30T05:28:12.034Z,102458.59
2019-04-30T05:30:41.538Z,102456.70
2019-04-30T05:33:10.947Z,102455.75
2019-04-30T05:35:40.401Z,102456.63
2019-04-30T05:38:09.835Z,102461.28
2019-04-30T05:40:39.906Z,102456.91
2019-04-30T05:43:11.319Z,102457.53
2019-04-30T05:45:40.985Z,102461.14
2019-04-30T05:48:10.407Z,102461.27
2019-04-30T05:50:39.830Z,102458.08
2019-04-30T05:53:09.276Z,102462.72
2019-04-30T05:55:39.525Z,102469.16
2019-04-30T05:58:09.458Z,102466.72
2019-04-30T06:00:39.967Z,102470.33
2019-04-30T06:03:11.718Z,102472.14
2019-04-30T06:05:41.389Z,102472.90
2019-04-30T06:08:12.597Z,102473.33
2019-04-30T06:10:46.500Z,102477.42
2019-04-30T06:13:31.952Z,102479.88
2019-04-30T06:16:04.757Z,102479.69
2019-04-30T06:18:34.557Z,102476.83
2019-04-30T06:21:04.588Z,102483.98
2019-04-30T06:23:34.174Z,102477.70
2019-04-30T06:26:09.743Z,102474.80
2019-04-30T06:28:35.338Z,102468.30
2019-04-30T06:31:04.942Z,102468.88
2019-04-30T06:33:34.440Z,102470.64
2019-04-30T06:36:03.997Z,102471.80
2019-04-30T06:38:33.436Z,102464.07
2019-04-30T06:41:02.943Z,102468.41
2019-04-30T06:43:32.463Z,102471.06
2019-04-30T06:46:02.357Z,102475.88
2019-04-30T06:48:34.649Z,102471.66
2019-04-30T06:51:04.141Z,102467.70
2019-04-30T06:53:33.560Z,102468.09
2019-04-30T06:56:03.012Z,102473.69
2019-04-30T06:58:32.499Z,102477.14
2019-04-30T07:01:03.918Z,102468.55
2019-04-30T07:03:33.345Z,102466.60
2019-04-30T07:06:02.834Z,102468.56
2019-04-30T07:08:51.963Z,102470.73
2019-04-30T07:11:29.205Z,102473.58
2019-04-30T07:14:00.042Z,102470.54
2019-04-30T07:16:29.942Z,102473.77
2019-04-30T07:18:59.497Z,102471.47
2019-04-30T07:21:31.244Z,102477.81
2019-04-30T07:24:00.174Z,102468.76
2019-04-30T07:26:29.681Z,102468.40
2019-04-30T07:28:59.815Z,102472.98
2019-04-30T07:31:30.584Z,102474.43
2019-04-30T07:34:00.033Z,102469.33
2019-04-30T07:36:45.229Z,102472.47
2019-04-30T07:39:00.699Z,102480.63
2019-04-30T07:41:31.184Z,102479.09
2019-04-30T07:44:00.990Z,102482.56
2019-04-30T07:46:35.079Z,102480.83
2019-04-30T07:49:01.870Z,102481.23
2019-04-30T07:51:37.133Z,102479.59
2019-04-30T07:54:02.826Z,102481.93
2019-04-30T07:56:37.548Z,102474.78
2019-04-30T07:59:03.866Z,102476.06
2019-04-30T08:01:33.355Z,102478.02
2019-04-30T08:04:04.511Z,102473.86
2019-04-30T08:06:34.036Z,102481.86
2019-04-30T08:09:05.582Z,102478.27
2019-04-30T08:11:41.867Z,102474.55
2019-04-30T08:14:07.146Z,102478.38
2019-04-30T08:16:38.581Z,102476.69
2019-04-30T08:19:09.135Z,102474.21
2019-04-30T08:21:38.844Z,102478.70
2019-04-30T08:24:09.287Z,102486.89
2019-04-30T08:26:39.770Z,102488.44
2019-04-30T08:29:09.688Z,102496.41
2019-04-30T08:31:40.914Z,102488.84
2019-04-30T08:34:10.951Z,102482.09
2019-04-30T08:36:40.725Z,102482.14
2019-04-30T08:39:10.288Z,102478.77
2019-04-30T08:41:40.159Z,102481.68
2019-04-30T08:44:09.659Z,102484.55
2019-04-30T08:46:39.125Z,102483.20
2019-04-30T08:49:10.027Z,102486.09
2019-04-30T08:51:40.271Z,102485.08
2019-04-30T08:54:10.105Z,102490.92
2019-04-30T08:56:39.702Z,102487.37
2019-04-30T08:59:11.206Z,102486.61
2019-04-30T09:01:40.314Z,102486.05
2019-04-30T09:04:10.478Z,102474.51
2019-04-30T09:06:40.196Z,102480.00
2019-04-30T09:09:11.503Z,102486.59
2019-04-30T09:11:51.751Z,102479.98
2019-04-30T09:14:12.557Z,102481.72
2019-04-30T09:16:42.101Z,102486.28
2019-04-30T09:19:11.560Z,102490.30
2019-04-30T09:21:41.018Z,102486.16
2019-04-30T09:24:10.505Z,102487.78
2019-04-30T09:26:39.956Z,102485.61
2019-04-30T09:29:09.474Z,102489.34
2019-04-30T09:31:40.845Z,102488.41
2019-04-30T09:34:17.466Z,102490.43
2019-04-30T09:36:41.326Z,102491.23
2019-04-30T09:39:10.917Z,102489.45
2019-04-30T09:41:41.269Z,102498.21
2019-04-30T09:44:10.801Z,102496.98
2019-04-30T09:46:40.259Z,102499.81
2019-04-30T09:49:09.832Z,102499.09
2019-04-30T09:51:40.179Z,102498.78
2019-04-30T09:54:12.755Z,102495.20
2019-04-30T09:56:41.351Z,102494.87
2019-04-30T09:59:11.226Z,102492.74
2019-04-30T10:01:40.726Z,102492.80
2019-04-30T10:04:10.937Z,102489.17
2019-04-30T10:06:40.884Z,102485.14
2019-04-30T10:09:12.223Z,102485.71
2019-04-30T10:11:50.092Z,102487.41
2019-04-30T10:14:19.751Z,102488.61
2019-04-30T10:17:05.759Z,102491.25
2019-04-30T10:19:35.190Z,102484.86
2019-04-30T10:22:05.082Z,102487.93
2019-04-30T10:24:34.664Z,102484.66
2019-04-30T10:27:06.917Z,102479.16
2019-04-30T10:29:35.461Z,102475.98
2019-04-30T10:32:05.027Z,102478.20
2019-04-30T10:34:34.546Z,102476.64
2019-04-30T10:37:05.887Z,102476.14
2019-04-30T10:39:35.397Z,102468.89
2019-04-30T10:42:05.065Z,102468.86
2019-04-30T10:44:34.547Z,102464.75
2019-04-30T10:47:04.006Z,102463.80
2019-04-30T10:49:33.440Z,102460.63
2019-04-30T10:52:02.992Z,102452.14
2019-04-30T10:54:32.462Z,102449.11
2019-04-30T10:57:02.312Z,102451.77
2019-04-30T10:59:31.848Z,102447.45
2019-04-30T11:02:01.335Z,102443.17
2019-04-30T11:04:30.822Z,102440.59
2019-04-30T11:07:00.884Z,102434.02
2019-04-30T11:09:31.169Z,102433.45
2019-04-30T11:12:03.017Z,102424.30
2019-04-30T11:14:32.241Z,102425.32
2019-04-30T11:17:02.010Z,102427.12
2019-04-30T11:19:31.861Z,102421.62
2019-04-30T11:22:01.718Z,102413.58
2019-04-30T11:24:38.038Z,102412.14
2019-04-30T11:27:02.945Z,102407.92
2019-04-30T11:29:32.864Z,102405.67
2019-04-30T11:32:07.238Z,102403.09
2019-04-30T11:34:36.801Z,102401.78
2019-04-30T11:37:06.305Z,102404.85
2019-04-30T11:39:35.725Z,102404.47
2019-04-30T11:42:06.019Z,102405.38
2019-04-30T11:44:35.572Z,102404.82
2019-04-30T11:47:19.457Z,102396.68
2019-04-30T11:49:48.956Z,102389.93
2019-04-30T11:52:18.446Z,102382.23
2019-04-30T11:54:51.388Z,102382.52
2019-04-30T11:57:19.248Z,102383.67
2019-04-30T11:59:48.856Z,102383.39
2019-04-30T12:02:22.645Z,102374.09
2019-04-30T12:04:52.449Z,102370.67
2019-04-30T12:07:26.208Z,102371.95
2019-04-30T12:10:00.037Z,102371.84
2019-04-30T12:12:48.824Z,102370.25
2019-04-30T12:15:19.259Z,102369.79
2019-04-30T12:17:49.227Z,102369.57
2019-04-30T12:20:19.718Z,102364.27
2019-04-30T12:22:49.452Z,102362.88
2019-04-30T12:25:19.088Z,102359.86
2019-04-30T12:27:48.915Z,102359.36
2019-04-30T12:30:20.697Z,102351.53
2019-04-30T12:32:50.131Z,102348.58
2019-04-30T12:35:20.076Z,102345.03
2019-04-30T12:37:52.348Z,102350.95
2019-04-30T12:40:28.886Z,102351.05
2019-04-30T12:42:53.197Z,102351.63
2019-04-30T12:45:22.966Z,102347.63
2019-04-30T12:47:56.812Z,102340.20
2019-04-30T12:50:34.049Z,102342.86
2019-04-30T12:53:23.830Z,102344.53
2019-04-30T12:55:55.512Z,102338.33
2019-04-30T12:58:25.075Z,102327.06
2019-04-30T13:00:54.519Z,102333.29
2019-04-30T13:03:23.935Z,102325.85
2019-04-30T13:05:53.856Z,102326.78
2019-04-30T13:08:24.055Z,102334.43
2019-04-30T13:10:54.426Z,102329.42
2019-04-30T13:13:25.137Z,102327.72
2019-04-30T13:15:54.774Z,102326.13
2019-04-30T13:18:24.392Z,102323.28
2019-04-30T13:20:53.934Z,102316.84
2019-04-30T13:23:23.384Z,102315.24
2019-04-30T13:25:52.828Z,102315.00
2019-04-30T13:28:23.896Z,102312.38
2019-04-30T13:30:53.367Z,102309.52
2019-04-30T13:33:39.703Z,102302.95
2019-04-30T13:36:09.323Z,102308.52
2019-04-30T13:38:51.726Z,102305.58
2019-04-30T13:41:24.714Z,102308.13
2019-04-30T13:43:55.851Z,102298.80
2019-04-30T13:46:26.060Z,102299.56
2019-04-30T13:48:55.494Z,102300.28
2019-04-30T13:51:24.927Z,102290.38
2019-04-30T13:53:54.367Z,102284.66
2019-04-30T13:56:23.963Z,102283.45
2019-04-30T13:58:53.598Z,102279.22
2019-04-30T14:01:23.486Z,102275.16
2019-04-30T14:04:09.771Z,102281.11
2019-04-30T14:06:40.923Z,102274.95
2019-04-30T14:09:27.262Z,102279.69
2019-04-30T14:11:56.668Z,102276.11
2019-04-30T14:14:26.206Z,102272.94
2019-04-30T14:16:55.711Z,102271.41
2019-04-30T14:19:25.146Z,102264.16
2019-04-30T14:21:54.734Z,102260.86
2019-04-30T14:24:24.173Z,102259.20
2019-04-30T14:26:53.615Z,102256.43
2019-04-30T14:29:23.049Z,102261.36
2019-04-30T14:31:52.540Z,102256.44
2019-04-30T14:34:21.987Z,102252.58
2019-04-30T14:36:51.477Z,102253.33
2019-04-30T14:39:21.017Z,102245.80
2019-04-30T14:41:52.989Z,102250.78
2019-04-30T14:44:31.812Z,102247.66
2019-04-30T14:47:03.565Z,102251.67
2019-04-30T14:49:37.794Z,102246.61
2019-04-30T14:52:09.343Z,102245.17
2019-04-30T14:54:50.475Z,102237.05
2019-04-30T14:57:33.457Z,102240.64
2019-04-30T15:00:04.542Z,102232.42
2019-04-30T15:02:44.795Z,102228.16
2019-04-30T15:05:14.576Z,102231.58
2019-04-30T15:07:44.077Z,102228.66
2019-04-30T15:10:15.530Z,102224.40
2019-04-30T15:12:44.996Z,102227.77
2019-04-30T15:15:15.497Z,102223.84
2019-04-30T15:17:44.928Z,102218.73
2019-04-30T15:20:15.072Z,102214.69
2019-04-30T15:22:46.138Z,102218.20
2019-04-30T15:25:15.737Z,102217.58
2019-04-30T15:27:47.612Z,102217.85
2019-04-30T15:30:21.615Z,102209.19
2019-04-30T15:32:52.475Z,102217.33
2019-04-30T15:35:21.911Z,102212.87
2019-04-30T15:37:52.988Z,102211.44
2019-04-30T15:40:23.026Z,102212.30
2019-04-30T15:42:54.110Z,102207.70
2019-04-30T15:45:23.602Z,102209.48
2019-04-30T15:47:53.042Z,102207.78
2019-04-30T15:50:22.614Z,102213.16
2019-04-30T15:52:52.431Z,102205.66
2019-04-30T15:55:21.881Z,102208.81
2019-04-30T15:58:01.746Z,102203.45
2019-04-30T16:00:32.247Z,102205.02
2019-04-30T16:03:12.011Z,102203.48
2019-04-30T16:05:43.135Z,102204.84
2019-04-30T16:08:14.267Z,102200.83
2019-04-30T16:11:01.835Z,102193.13
2019-04-30T16:13:41.584Z,102191.05
2019-04-30T16:16:13.252Z,102190.77
2019-04-30T16:18:46.354Z,102192.41
2019-04-30T16:21:15.870Z,102187.51
2019-04-30T16:23:45.302Z,102200.72
2019-04-30T16:26:14.803Z,102192.58
2019-04-30T16:28:44.322Z,102190.56
2019-04-30T16:31:14.348Z,102188.81
2019-04-30T16:33:43.777Z,102185.84
2019-04-30T16:36:13.227Z,102192.05
2019-04-30T16:38:42.654Z,102191.11
2019-04-30T16:41:12.173Z,102182.71
2019-04-30T16:43:44.062Z,102184.44
2019-04-30T16:46:12.741Z,102183.58
2019-04-30T16:48:42.172Z,102189.35
2019-04-30T16:51:11.601Z,102185.85
2019-04-30T16:53:41.066Z,102187.62
2019-04-30T16:56:12.491Z,102184.38
2019-04-30T16:58:55.361Z,102185.53
2019-04-30T17:01:24.966Z,102181.20
2019-04-30T17:03:56.115Z,102186.45
2019-04-30T17:06:27.276Z,102174.67
2019-04-30T17:08:58.357Z,102181.73
2019-04-30T17:11:45.259Z,102181.06
2019-04-30T17:14:16.356Z,102181.59
2019-04-30T17:16:45.772Z,102181.17
2019-04-30T17:19:15.228Z,102182.19
2019-04-30T17:21:44.659Z,102176.52
2019-04-30T17:24:14.168Z,102174.34
2019-04-30T17:26:43.700Z,102179.20
2019-04-30T17:29:13.115Z,102179.06
2019-04-30T17:31:42.564Z,102177.30
2019-04-30T17:34:12.264Z,102183.95
2019-04-30T17:36:41.729Z,102181.60
2019-04-30T17:39:13.183Z,102181.77
2019-04-30T17:41:42.652Z,102181.25
2019-04-30T17:44:12.109Z,102183.46
2019-04-30T17:46:41.524Z,102182.47
2019-04-30T17:49:10.997Z,102184.73
2019-04-30T17:51:40.419Z,102183.77
2019-04-30T17:54:16.241Z,102183.13
2019-04-30T17:56:46.700Z,102183.30
2019-04-30T17:59:16.138Z,102179.27
2019-04-30T18:01:47.221Z,102179.29
2019-04-30T18:04:18.599Z,102177.21
2019-04-30T18:06:48.450Z,102177.84
2019-04-30T18:09:19.270Z,102176.25
2019-04-30T18:11:49.602Z,102175.50
2019-04-30T18:14:19.283Z,102174.17
2019-04-30T18:16:48.888Z,102171.51
2019-04-30T18:19:22.652Z,102173.20
2019-04-30T18:22:02.951Z,102173.66
2019-04-30T18:24:49.342Z,102171.34
2019-04-30T18:27:21.310Z,102174.81
2019-04-30T18:29:50.919Z,102170.55
2019-04-30T18:32:22.151Z,102168.16
2019-04-30T18:34:51.700Z,102169.59
2019-04-30T18:37:21.223Z,102166.88
2019-04-30T18:39:50.783Z,102164.13
2019-04-30T18:42:20.467Z,102165.75
2019-04-30T18:44:49.903Z,102170.48
2019-04-30T18:47:19.530Z,102168.81
2019-04-30T18:49:49.623Z,102170.11
2019-04-30T18:52:19.247Z,102183.18
2019-04-30T18:54:49.501Z,102177.79
2019-04-30T18:57:19.145Z,102181.45
2019-04-30T18:59:48.638Z,102184.90
2019-04-30T19:02:18.618Z,102184.40
2019-04-30T19:04:49.572Z,102190.14
2019-04-30T19:07:23.359Z,102188.77
2019-04-30T19:09:58.799Z,102184.76
2019-04-30T19:12:42.060Z,102183.98
2019-04-30T19:15:21.903Z,102189.65
2019-04-30T19:17:52.990Z,102186.41
2019-04-30T19:20:29.533Z,102187.77
2019-04-30T19:23:00.990Z,102183.48
2019-04-30T19:25:30.861Z,102181.31
2019-04-30T19:28:11.354Z,102184.77
2019-04-30T19:30:32.589Z,102185.02
2019-04-30T19:33:03.713Z,102185.26
2019-04-30T19:35:33.186Z,102192.29
2019-04-30T19:38:02.791Z,102192.64
2019-04-30T19:40:34.499Z,102196.20
2019-04-30T19:43:03.980Z,102192.76
2019-04-30T19:45:34.151Z,102199.43
2019-04-30T19:48:03.769Z,102190.56
2019-04-30T19:50:33.267Z,102198.05
2019-04-30T19:53:03.152Z,102203.95
2019-04-30T19:55:32.673Z,102195.45
2019-04-30T19:58:02.184Z,102198.94
2019-04-30T20:00:32.184Z,102199.34
2019-04-30T20:03:01.611Z,102209.98
2019-04-30T20:05:31.521Z,102205.62
2019-04-30T20:08:01.028Z,102203.56
2019-04-30T20:10:30.463Z,102203.48
2019-04-30T20:13:00.002Z,102204.33
2019-04-30T20:15:29.912Z,102197.55
2019-04-30T20:18:01.018Z,102195.38
2019-04-30T20:20:30.861Z,102195.03
2019-04-30T20:23:04.552Z,102189.18
2019-04-30T20:25:34.041Z,102188.90
2019-04-30T20:28:03.571Z,102187.27
2019-04-30T20:30:33.001Z,102191.57
2019-04-30T20:33:02.418Z,102191.92
2019-04-30T20:35:31.922Z,102192.98
2019-04-30T20:38:11.668Z,102191.67
2019-04-30T20:40:43.852Z,102194.14
2019-04-30T20:43:13.945Z,102188.69
2019-04-30T20:45:43.403Z,102191.06
2019-04-30T20:48:12.832Z,102186.36
2019-04-30T20:50:42.337Z,102186.50
2019-04-30T20:53:11.775Z,102186.25
2019-04-30T20:55:41.214Z,102186.89
2019-04-30T20:58:10.814Z,102187.16
2019-04-30T21:00:40.590Z,102181.08
2019-04-30T21:03:10.020Z,102179.81
2019-04-30T21:05:39.578Z,102177.62
2019-04-30T21:08:09.089Z,102181.33
2019-04-30T21:10:39.682Z,102179.84
2019-04-30T21:13:11.123Z,102177.31
2019-04-30T21:15:40.395Z,102174.30
2019-04-30T21:18:09.841Z,102170.48
2019-04-30T21:20:39.334Z,102169.70
2019-04-30T21:23:09.433Z,102166.74
2019-04-30T21:25:39.094Z,102168.52
2019-04-30T21:28:09.749Z,102160.50
2019-04-30T21:30:39.430Z,102158.34
2019-04-30T21:33:10.482Z,102157.07
2019-04-30T21:35:41.649Z,102163.39
2019-04-30T21:38:11.111Z,102166.27
2019-04-30T21:40:40.902Z,102159.77
2019-04-30T21:43:10.416Z,102161.83
2019-04-30T21:45:40.025Z,102164.05
2019-04-30T21:48:09.642Z,102157.92
2019-04-30T21:50:39.757Z,102157.70
2019-04-30T21:53:09.975Z,102156.61
2019-04-30T21:55:39.946Z,102155.77
2019-04-30T21:58:09.768Z,102155.09
2019-04-30T22:00:41.117Z,102152.99
2019-04-30T22:03:10.678Z,102157.78
2019-04-30T22:05:40.265Z,102161.45
2019-04-30T22:08:09.689Z,102157.67
2019-04-30T22:10:39.117Z,102155.47
2019-04-30T22:13:08.956Z,102160.48
2019-04-30T22:15:38.535Z,102158.73
2019-04-30T22:18:08.001Z,102165.81
2019-04-30T22:20:39.223Z,102166.59
2019-04-30T22:23:09.165Z,102165.86
2019-04-30T22:25:39.294Z,102162.70
2019-04-30T22:28:08.860Z,102157.16
2019-04-30T22:30:38.357Z,102162.13
2019-04-30T22:33:08.899Z,102156.36
2019-04-30T22:35:40.996Z,102161.39
2019-04-30T22:38:12.068Z,102156.55
2019-04-30T22:40:41.834Z,102147.97
2019-04-30T22:43:13.423Z,102152.28
2019-04-30T22:45:44.941Z,102153.46
2019-04-30T22:48:14.368Z,102152.64
2019-04-30T22:50:43.873Z,102144.95
2019-04-30T22:53:15.286Z,102147.11
2019-04-30T22:55:44.714Z,102147.19
2019-04-30T22:58:14.262Z,102139.06
2019-04-30T23:00:45.795Z,102140.66
2019-04-30T23:03:17.281Z,102145.93
2019-04-30T23:05:49.030Z,102140.72
2019-04-30T23:08:20.217Z,102135.90
2019-04-30T23:10:49.734Z,102141.61
2019-04-30T23:13:19.627Z,102140.72
2019-04-30T23:15:52.679Z,102135.52
2019-04-30T23:18:24.188Z,102137.38
2019-04-30T23:20:54.134Z,102137.06
2019-04-30T23:23:23.598Z,102143.67
2019-04-30T23:25:54.207Z,102131.69
2019-04-30T23:28:23.616Z,102129.52
2019-04-30T23:30:53.062Z,102130.05
2019-04-30T23:33:22.560Z,102127.88
2019-04-30T23:35:52.355Z,102125.81
2019-04-30T23:38:21.801Z,102132.96
2019-04-30T23:40:52.534Z,102126.81
2019-04-30T23:43:24.825Z,102124.73
2019-04-30T23:45:54.587Z,102123.30
2019-04-30T23:48:24.005Z,102122.29
2019-04-30T23:50:53.440Z,102119.67
2019-04-30T23:53:22.946Z,102115.72
2019-04-30T23:55:52.376Z,102116.64
2019-04-30T23:58:22.174Z,102112.20
